Welcome to Northern Hawkes Bay. New Zealand.
PWS Header
      nz Flag



Hit Counter


W3C Valid W3C Valid logo


    Wairoa

Select any of the Stations below to visit their websites.










Historic Data from Weather Underground
Select the location of interest below. Wairoa is the default. Please have patience, this Data is slow to load in.
Northern Hawkes Bay Historical Data
Daily Summary for October 16, 2017 Units:  Metric    English   Both
« Previous Day
Next Day »
Daily Weekly Monthly Yearly Custom
  High: Low: Average:
Temperature: 22.4 °C 6.5 °C 14.4 °C
Dew Point: 12.5 °C 5.7 °C 9.2 °C
Humidity: 99% 44% 74%
Wind Speed: 15.8km/h 0.0km/h 4km/h
Wind Gust: 23.3km/h - -
Wind- - WSW
Pressure: 1019.5 hPa 1012.8 hPa -
Precipitation: 0.0 mm    
Historical Graphs
 
 
Tabular Data for October 16, 2017
Time Temperature Dew Point Pressure Wind Wind Speed Wind Gust Humidity Rainfall Rate (Hourly) solar
00:02 8.0 °C 7.8 °C 1015.8 hPa NW 2.6 km/h 5.0 km/h 99% 0.0 mm 0 W/m2
00:07 8.0 °C 7.8 °C 1015.8 hPa NW 2.6 km/h 6.1 km/h 99% 0.0 mm 0 W/m2
00:12 7.9 °C 7.4 °C 1015.5 hPa NW 5.0 km/h 6.1 km/h 97% 0.0 mm 0 W/m2
00:17 7.9 °C 7.4 °C 1015.5 hPa NW 2.6 km/h 6.1 km/h 97% 0.0 mm 0 W/m2
00:22 7.9 °C 7.4 °C 1015.5 hPa NW 2.6 km/h 6.1 km/h 97% 0.0 mm 0 W/m2
00:27 7.8 °C 7.3 °C 1015.8 hPa NW 2.6 km/h 6.1 km/h 97% 0.0 mm 0 W/m2
00:32 7.8 °C 7.3 °C 1015.8 hPa NW 2.6 km/h 5.0 km/h 97% 0.0 mm 0 W/m2
00:37 7.8 °C 7.3 °C 1015.5 hPa NNW 1.1 km/h 5.0 km/h 97% 0.0 mm 0 W/m2
00:42 7.8 °C 7.3 °C 1015.5 hPa NNW 2.6 km/h 5.0 km/h 97% 0.0 mm 0 W/m2
01:02 7.6 °C 7.2 °C 1015.1 hPa NNW 3.5 km/h 6.1 km/h 97% 0.0 mm 0 W/m2
01:07 7.6 °C 7.2 °C 1015.1 hPa NNW 3.5 km/h 6.1 km/h 97% 0.0 mm 0 W/m2
01:12 7.7 °C 7.3 °C 1015.1 hPa NNW 5.0 km/h 7.2 km/h 97% 0.0 mm 0 W/m2
01:17 7.7 °C 7.3 °C 1015.1 hPa NNW 6.1 km/h 8.7 km/h 97% 0.0 mm 0 W/m2
01:22 7.6 °C 7.2 °C 1015.1 hPa NW 3.5 km/h 8.7 km/h 97% 0.0 mm 0 W/m2
01:27 7.5 °C 7.1 °C 1015.1 hPa NW 3.5 km/h 8.7 km/h 97% 0.0 mm 0 W/m2
01:32 7.5 °C 7.1 °C 1015.1 hPa NNW 5.0 km/h 7.2 km/h 97% 0.0 mm 0 W/m2
01:37 7.5 °C 7.1 °C 1014.8 hPa NNW 2.6 km/h 7.2 km/h 97% 0.0 mm 0 W/m2
01:42 7.7 °C 7.3 °C 1014.8 hPa North 2.6 km/h 12.2 km/h 97% 0.0 mm 0 W/m2
01:47 7.9 °C 7.4 °C 1014.8 hPa North 7.2 km/h 12.2 km/h 97% 0.0 mm 0 W/m2
01:52 8.0 °C 7.8 °C 1014.8 hPa North 6.1 km/h 11.1 km/h 99% 0.0 mm 0 W/m2
01:57 8.0 °C 7.8 °C 1014.4 hPa NNE 5.0 km/h 11.1 km/h 99% 0.0 mm 0 W/m2
02:02 8.1 °C 7.9 °C 1014.4 hPa North 5.0 km/h 8.7 km/h 99% 0.0 mm 0 W/m2
02:07 8.2 °C 8.1 °C 1014.4 hPa North 5.0 km/h 11.1 km/h 99% 0.0 mm 0 W/m2
02:12 8.3 °C 8.2 °C 1014.4 hPa North 6.1 km/h 11.1 km/h 99% 0.0 mm 0 W/m2
02:17 8.2 °C 7.8 °C 1014.4 hPa North 3.5 km/h 11.1 km/h 97% 0.0 mm 0 W/m2
02:22 8.3 °C 7.7 °C 1014.4 hPa North 3.5 km/h 11.1 km/h 96% 0.0 mm 0 W/m2
02:27 8.3 °C 7.6 °C 1014.4 hPa North 5.0 km/h 11.1 km/h 95% 0.0 mm 0 W/m2
02:45 8.1 °C 7.1 °C 1014.1 hPa Calm   8.7 km/h 93% 0.0 mm 0 W/m2
02:50 7.8 °C 6.7 °C 1014.1 hPa NE 2.6 km/h 5.0 km/h 93% 0.0 mm 0 W/m2
02:55 7.7 °C 6.7 °C 1013.8 hPa NE 3.5 km/h 6.1 km/h 93% 0.0 mm 0 W/m2
03:00 7.7 °C 6.8 °C 1014.1 hPa North 5.0 km/h 11.1 km/h 94% 0.0 mm 0 W/m2
03:05 7.8 °C 6.9 °C 1013.8 hPa North 2.6 km/h 11.1 km/h 94% 0.0 mm 0 W/m2
03:10 7.8 °C 6.9 °C 1013.4 hPa North 1.1 km/h 7.2 km/h 94% 0.0 mm 0 W/m2
03:15 7.8 °C 6.9 °C 1013.8 hPa North 3.5 km/h 7.2 km/h 94% 0.0 mm 0 W/m2
03:20 7.7 °C 6.7 °C 1013.8 hPa North 3.5 km/h 7.2 km/h 93% 0.0 mm 0 W/m2
03:25 7.7 °C 6.7 °C 1013.8 hPa NNW 2.6 km/h 9.7 km/h 93% 0.0 mm 0 W/m2
03:30 7.9 °C 6.8 °C 1013.4 hPa NNW 3.5 km/h 9.7 km/h 93% 0.0 mm 0 W/m2
03:35 7.9 °C 6.7 °C 1013.4 hPa North 2.6 km/h 13.4 km/h 92% 0.0 mm 0 W/m2
03:40 7.9 °C 6.7 °C 1013.4 hPa NNW 5.0 km/h 13.4 km/h 92% 0.0 mm 0 W/m2
03:45 7.9 °C 6.7 °C 1013.8 hPa NNW 2.6 km/h 9.7 km/h 92% 0.0 mm 0 W/m2
03:50 7.8 °C 6.6 °C 1013.4 hPa North 2.6 km/h 9.7 km/h 92% 0.0 mm 0 W/m2
03:55 7.8 °C 6.4 °C 1013.4 hPa North 3.5 km/h 6.1 km/h 91% 0.0 mm 0 W/m2
04:00 7.7 °C 6.3 °C 1013.8 hPa NNW 2.6 km/h 6.1 km/h 91% 0.0 mm 0 W/m2
04:05 7.5 °C 6.3 °C 1013.4 hPa NNW 2.6 km/h 6.1 km/h 92% 0.0 mm 0 W/m2
04:11 7.4 °C 6.2 °C 1013.4 hPa NNW 1.1 km/h 6.1 km/h 92% 0.0 mm 0 W/m2
04:16 7.3 °C 6.1 °C 1013.4 hPa NNW 2.6 km/h 6.1 km/h 92% 0.0 mm 0 W/m2
04:21 7.4 °C 6.3 °C 1013.4 hPa North 5.0 km/h 7.2 km/h 93% 0.0 mm 0 W/m2
04:26 7.6 °C 6.4 °C 1013.4 hPa North 6.1 km/h 12.2 km/h 92% 0.0 mm 0 W/m2
04:31 7.7 °C 6.5 °C 1013.4 hPa North 3.5 km/h 12.2 km/h 92% 0.0 mm 0 W/m2
04:36 7.7 °C 6.3 °C 1013.1 hPa North 3.5 km/h 11.1 km/h 91% 0.0 mm 0 W/m2
04:41 7.8 °C 6.4 °C 1013.1 hPa NNW 3.5 km/h 8.7 km/h 91% 0.0 mm 0 W/m2
04:46 7.9 °C 6.4 °C 1013.1 hPa NNW 2.6 km/h 8.7 km/h 90% 0.0 mm 0 W/m2
04:51 7.8 °C 6.1 °C 1012.8 hPa NW 2.6 km/h 7.2 km/h 89% 0.0 mm 0 W/m2
04:56 7.5 °C 5.8 °C 1013.1 hPa NW 1.1 km/h 7.2 km/h 89% 0.0 mm 0 W/m2
05:01 7.4 °C 5.9 °C 1012.8 hPa NW 2.6 km/h 6.1 km/h 90% 0.0 mm 0 W/m2
05:06 7.4 °C 5.9 °C 1013.1 hPa NW 5.0 km/h 9.7 km/h 90% 0.0 mm 0 W/m2
05:11 7.4 °C 6.1 °C 1013.1 hPa NW 5.0 km/h 9.7 km/h 91% 0.0 mm 0 W/m2
05:16 7.2 °C 5.8 °C 1013.1 hPa NW 6.1 km/h 11.1 km/h 91% 0.0 mm 0 W/m2
05:21 7.1 °C 5.7 °C 1013.1 hPa NNW 3.5 km/h 11.1 km/h 91% 0.0 mm 0 W/m2
05:26 6.9 °C 5.8 °C 1012.8 hPa NNW 5.0 km/h 8.7 km/h 93% 0.0 mm 0 W/m2
05:31 6.8 °C 5.7 °C 1013.1 hPa NW 2.6 km/h 8.7 km/h 93% 0.0 mm 0 W/m2
05:36 6.7 °C 5.8 °C 1013.1 hPa NW 5.0 km/h 9.7 km/h 94% 0.0 mm 0 W/m2
05:41 6.7 °C 5.8 °C 1013.1 hPa NW 1.1 km/h 9.7 km/h 94% 0.0 mm 0 W/m2
05:46 6.7 °C 5.8 °C 1013.1 hPa NW 1.1 km/h 8.7 km/h 94% 0.0 mm 0 W/m2
05:51 6.7 °C 5.8 °C 1013.1 hPa NW 5.0 km/h 8.7 km/h 94% 0.0 mm 0 W/m2
05:56 6.7 °C 5.8 °C 1013.1 hPa NW 5.0 km/h 9.7 km/h 94% 0.0 mm 0 W/m2
06:01 6.7 °C 5.8 °C 1013.4 hPa NW 1.1 km/h 9.7 km/h 94% 0.0 mm 0 W/m2
06:06 6.6 °C 5.7 °C 1013.4 hPa WNW 5.0 km/h 8.7 km/h 94% 0.0 mm 0 W/m2
06:11 6.6 °C 5.8 °C 1013.4 hPa NW 3.5 km/h 8.7 km/h 95% 0.0 mm 0 W/m2
06:16 6.6 °C 5.8 °C 1013.4 hPa NNW 3.5 km/h 8.7 km/h 95% 0.0 mm 0 W/m2
06:21 6.5 °C 5.8 °C 1013.4 hPa NNW 5.0 km/h 9.7 km/h 95% 0.0 mm 0 W/m2
06:26 6.5 °C 5.8 °C 1013.8 hPa NW 3.5 km/h 9.7 km/h 95% 0.0 mm 1 W/m2
06:31 6.5 °C 5.9 °C 1013.4 hPa NW 6.1 km/h 9.7 km/h 96% 0.0 mm 4 W/m2
06:36 6.5 °C 5.9 °C 1013.8 hPa NW 3.5 km/h 11.1 km/h 96% 0.0 mm 6 W/m2
06:41 6.6 °C 6.0 °C 1013.8 hPa NW 3.5 km/h 11.1 km/h 96% 0.0 mm 10 W/m2
06:46 6.6 °C 6.0 °C 1013.8 hPa NW 11.1 km/h 13.4 km/h 96% 0.0 mm 20 W/m2
06:52 6.7 °C 6.1 °C 1013.8 hPa NW 8.7 km/h 13.4 km/h 96% 0.0 mm 25 W/m2
06:57 7.0 °C 6.3 °C 1014.1 hPa NW 7.2 km/h 13.4 km/h 95% 0.0 mm 56 W/m2
07:02 7.2 °C 6.3 °C 1014.1 hPa NNW 7.2 km/h 13.4 km/h 94% 0.0 mm 70 W/m2
07:07 7.4 °C 6.5 °C 1014.4 hPa North 2.6 km/h 13.4 km/h 94% 0.0 mm 82 W/m2
07:12 7.8 °C 6.7 °C 1014.4 hPa North 6.1 km/h 9.7 km/h 93% 0.0 mm 87 W/m2
07:17 7.8 °C 6.6 °C 1014.1 hPa NNW 5.0 km/h 9.7 km/h 92% 0.0 mm 75 W/m2
07:22 8.0 °C 6.4 °C 1014.1 hPa NNW 2.6 km/h 9.7 km/h 90% 0.0 mm 86 W/m2
07:27 8.4 °C 6.8 °C 1014.4 hPa Calm   8.7 km/h 90% 0.0 mm 75 W/m2
07:32 8.9 °C 7.3 °C 1014.4 hPa Calm   3.5 km/h 90% 0.0 mm 100 W/m2
07:37 9.4 °C 7.5 °C 1014.8 hPa NW 2.6 km/h 5.0 km/h 88% 0.0 mm 91 W/m2
07:42 8.9 °C 6.8 °C 1014.8 hPa NW 3.5 km/h 7.2 km/h 87% 0.0 mm 75 W/m2
07:47 8.7 °C 6.7 °C 1014.8 hPa NW 3.5 km/h 9.7 km/h 87% 0.0 mm 111 W/m2
07:52 9.1 °C 6.9 °C 1014.8 hPa NW 3.5 km/h 9.7 km/h 86% 0.0 mm 103 W/m2
07:57 9.3 °C 7.1 °C 1014.8 hPa NNW 5.0 km/h 9.7 km/h 86% 0.0 mm 117 W/m2
08:02 9.5 °C 7.3 °C 1014.8 hPa NW 3.5 km/h 9.7 km/h 86% 0.0 mm 109 W/m2
08:07 9.8 °C 7.4 °C 1014.8 hPa NNW 1.1 km/h 8.7 km/h 85% 0.0 mm 109 W/m2
08:12 10.3 °C 7.7 °C 1014.8 hPa Calm   6.1 km/h 84% 0.0 mm 85 W/m2
08:17 10.1 °C 7.3 °C 1014.8 hPa NNW 3.5 km/h 6.1 km/h 83% 0.0 mm 85 W/m2
08:22 10.1 °C 7.3 °C 1014.8 hPa Calm   6.1 km/h 83% 0.0 mm 112 W/m2
08:27 10.3 °C 7.6 °C 1015.1 hPa Calm   6.1 km/h 83% 0.0 mm 185 W/m2
08:32 11.2 °C 8.2 °C 1015.1 hPa WNW 3.5 km/h 6.1 km/h 82% 0.0 mm 195 W/m2
08:37 11.5 °C 8.2 °C 1015.1 hPa NW 6.1 km/h 8.7 km/h 80% 0.0 mm 223 W/m2
08:42 11.8 °C 8.4 °C 1015.1 hPa NW 5.0 km/h 9.7 km/h 80% 0.0 mm 232 W/m2
08:47 12.5 °C 8.6 °C 1015.1 hPa NNW 8.7 km/h 13.4 km/h 77% 0.0 mm 243 W/m2
08:52 13.1 °C 8.6 °C 1015.1 hPa NW 12.2 km/h 15.8 km/h 74% 0.0 mm 255 W/m2
08:57 13.7 °C 8.6 °C 1015.1 hPa NNW 6.1 km/h 15.8 km/h 71% 0.0 mm 264 W/m2
09:02 14.1 °C 8.5 °C 1015.5 hPa NNW 6.1 km/h 13.4 km/h 69% 0.0 mm 276 W/m2
09:07 14.3 °C 8.5 °C 1015.5 hPa NW 6.1 km/h 13.4 km/h 68% 0.0 mm 286 W/m2
09:12 14.5 °C 8.4 °C 1015.5 hPa NW 11.1 km/h 13.4 km/h 67% 0.0 mm 296 W/m2
09:17 14.7 °C 8.7 °C 1015.5 hPa NW 7.2 km/h 13.4 km/h 67% 0.0 mm 307 W/m2
09:22 15.0 °C 8.7 °C 1015.8 hPa NNW 2.6 km/h 13.4 km/h 66% 0.0 mm 318 W/m2
09:27 15.7 °C 9.2 °C 1016.1 hPa NNW 3.5 km/h 9.7 km/h 65% 0.0 mm 332 W/m2
09:32 15.9 °C 9.3 °C 1015.8 hPa NNW 2.6 km/h 9.7 km/h 65% 0.0 mm 342 W/m2
09:37 16.2 °C 9.2 °C 1015.8 hPa NNW 3.5 km/h 12.2 km/h 63% 0.0 mm 353 W/m2
09:42 16.3 °C 9.3 °C 1015.8 hPa NNW 7.2 km/h 13.4 km/h 63% 0.0 mm 366 W/m2
09:47 16.5 °C 9.4 °C 1015.8 hPa NW 6.1 km/h 13.4 km/h 63% 0.0 mm 376 W/m2
09:52 16.7 °C 9.6 °C 1015.8 hPa NW 5.0 km/h 12.2 km/h 63% 0.0 mm 387 W/m2
09:57 17.5 °C 9.9 °C 1015.8 hPa NNW 3.5 km/h 12.2 km/h 61% 0.0 mm 397 W/m2
10:02 17.6 °C 10.0 °C 1015.8 hPa NNW 6.1 km/h 9.7 km/h 61% 0.0 mm 412 W/m2
10:07 17.8 °C 9.9 °C 1015.8 hPa NW 2.6 km/h 9.7 km/h 60% 0.0 mm 396 W/m2
10:12 18.2 °C 9.6 °C 1015.8 hPa NW 6.1 km/h 9.7 km/h 57% 0.0 mm 89 W/m2
10:17 18.5 °C 9.6 °C 1015.8 hPa NW 3.5 km/h 7.2 km/h 56% 0.0 mm 77 W/m2
10:22 18.9 °C 9.7 °C 1016.1 hPa NNW 3.5 km/h 8.7 km/h 55% 0.0 mm 76 W/m2
10:27 18.8 °C 9.3 °C 1015.8 hPa NNW 3.5 km/h 11.1 km/h 54% 0.0 mm 453 W/m2
10:32 19.0 °C 9.2 °C 1015.8 hPa NNW 2.6 km/h 11.1 km/h 53% 0.0 mm 81 W/m2
10:37 19.7 °C 9.6 °C 1015.8 hPa North 6.1 km/h 11.1 km/h 52% 0.0 mm 178 W/m2
10:42 19.4 °C 9.0 °C 1015.8 hPa NW 1.1 km/h 11.1 km/h 51% 0.0 mm 507 W/m2
10:47 19.2 °C 9.1 °C 1015.8 hPa NW 3.5 km/h 11.1 km/h 52% 0.0 mm 80 W/m2
10:52 19.8 °C 10.2 °C 1015.8 hPa North 3.5 km/h 8.7 km/h 54% 0.0 mm 522 W/m2
10:57 19.6 °C 9.5 °C 1015.8 hPa NNE 5.0 km/h 11.1 km/h 52% 0.0 mm 525 W/m2
11:02 19.2 °C 9.7 °C 1015.8 hPa NNW 11.1 km/h 17.2 km/h 54% 0.0 mm 556 W/m2
11:07 19.3 °C 9.8 °C 1015.8 hPa NW 6.1 km/h 17.2 km/h 54% 0.0 mm 560 W/m2
11:12 19.1 °C 9.6 °C 1015.8 hPa NNW 1.1 km/h 14.8 km/h 54% 0.0 mm 408 W/m2
11:17 19.2 °C 9.7 °C 1015.8 hPa NNW 2.6 km/h 14.8 km/h 54% 0.0 mm 601 W/m2
11:22 19.6 °C 10.1 °C 1015.8 hPa NW 1.1 km/h 12.2 km/h 54% 0.0 mm 619 W/m2
11:27 19.8 °C 9.9 °C 1015.8 hPa WNW 2.6 km/h 9.7 km/h 53% 0.0 mm 636 W/m2
11:32 19.7 °C 9.6 °C 1015.8 hPa NNW 3.5 km/h 7.2 km/h 52% 0.0 mm 644 W/m2
11:37 20.0 °C 9.8 °C 1015.8 hPa Calm   7.2 km/h 52% 0.0 mm 659 W/m2
11:42 20.2 °C 9.8 °C 1016.1 hPa NW 2.6 km/h 7.2 km/h 51% 0.0 mm 672 W/m2
11:47 20.5 °C 10.6 °C 1015.8 hPa NW 5.0 km/h 8.7 km/h 53% 0.0 mm 686 W/m2
11:52 20.5 °C 10.1 °C 1015.5 hPa NNW 2.6 km/h 8.7 km/h 51% 0.0 mm 695 W/m2
11:57 21.0 °C 10.8 °C 1015.5 hPa Calm   8.7 km/h 52% 0.0 mm 705 W/m2
12:02 21.6 °C 10.4 °C 1015.5 hPa Calm   7.2 km/h 49% 0.0 mm 723 W/m2
12:07 22.0 °C 10.5 °C 1015.1 hPa Calm   5.0 km/h 48% 0.0 mm 741 W/m2
12:12 22.4 °C 9.6 °C 1015.5 hPa Calm   5.0 km/h 44% 0.0 mm 752 W/m2
12:17 21.9 °C 9.4 °C 1015.5 hPa Calm   5.0 km/h 45% 0.0 mm 759 W/m2
12:22 21.8 °C 9.7 °C 1015.5 hPa SE 2.6 km/h 6.1 km/h 46% 0.0 mm 765 W/m2
12:27 21.6 °C 10.1 °C 1015.5 hPa SW 6.1 km/h 9.7 km/h 48% 0.0 mm 772 W/m2
12:32 21.2 °C 9.4 °C 1015.5 hPa SSW 13.4 km/h 17.2 km/h 47% 0.0 mm 775 W/m2
12:37 20.5 °C 9.4 °C 1015.5 hPa South 14.8 km/h 17.2 km/h 49% 0.0 mm 770 W/m2
12:42 20.2 °C 9.4 °C 1015.5 hPa SSW 7.2 km/h 17.2 km/h 50% 0.0 mm 769 W/m2
12:47 20.5 °C 9.7 °C 1015.5 hPa SSW 8.7 km/h 17.2 km/h 50% 0.0 mm 773 W/m2
12:52 20.3 °C 8.9 °C 1015.5 hPa SSW 11.1 km/h 14.8 km/h 48% 0.0 mm 771 W/m2
12:57 20.1 °C 8.4 °C 1015.8 hPa South 13.4 km/h 17.2 km/h 47% 0.0 mm 769 W/m2
13:02 20.1 °C 9.4 °C 1015.5 hPa South 9.7 km/h 17.2 km/h 50% 0.0 mm 767 W/m2
13:07 20.5 °C 9.4 °C 1015.8 hPa SSW 7.2 km/h 17.2 km/h 49% 0.0 mm 769 W/m2
13:12 20.8 °C 9.1 °C 1015.8 hPa SSW 8.7 km/h 15.8 km/h 47% 0.0 mm 774 W/m2
13:17 20.7 °C 9.0 °C 1015.8 hPa SSW 8.7 km/h 15.8 km/h 47% 0.0 mm 781 W/m2
13:22 20.6 °C 9.8 °C 1015.8 hPa SW 6.1 km/h 15.8 km/h 50% 0.0 mm 780 W/m2
13:27 20.5 °C 8.5 °C 1015.8 hPa SW 8.7 km/h 14.8 km/h 46% 0.0 mm 768 W/m2
13:32 20.2 °C 9.4 °C 1015.8 hPa South 11.1 km/h 15.8 km/h 50% 0.0 mm 625 W/m2
13:37 20.1 °C 9.7 °C 1016.1 hPa South 7.2 km/h 15.8 km/h 51% 0.0 mm 615 W/m2
13:42 20.0 °C 9.6 °C 1016.1 hPa South 8.7 km/h 17.2 km/h 51% 0.0 mm 568 W/m2
13:47 19.5 °C 9.1 °C 1016.1 hPa South 12.2 km/h 17.2 km/h 51% 0.0 mm 629 W/m2
13:52 19.5 °C 9.9 °C 1016.1 hPa South 11.1 km/h 18.3 km/h 54% 0.0 mm 463 W/m2
13:57 19.5 °C 9.9 °C 1016.1 hPa South 8.7 km/h 18.3 km/h 54% 0.0 mm 503 W/m2
14:02 19.9 °C 9.8 °C 1016.1 hPa South 6.1 km/h 15.8 km/h 52% 0.0 mm 552 W/m2
14:07 20.0 °C 10.2 °C 1016.1 hPa South 3.5 km/h 13.4 km/h 53% 0.0 mm 519 W/m2
14:12 20.3 °C 8.9 °C 1016.1 hPa SSW 8.7 km/h 14.8 km/h 48% 0.0 mm 394 W/m2
14:17 20.0 °C 8.3 °C 1016.1 hPa SSW 1.1 km/h 14.8 km/h 47% 0.0 mm 223 W/m2
14:22 20.1 °C 9.1 °C 1016.1 hPa SSW 8.7 km/h 13.4 km/h 49% 0.0 mm 640 W/m2
14:27 20.5 °C 9.4 °C 1016.1 hPa SSW 7.2 km/h 14.8 km/h 49% 0.0 mm 686 W/m2
14:32 20.5 °C 8.8 °C 1016.1 hPa South 8.7 km/h 14.8 km/h 47% 0.0 mm 666 W/m2
14:37 20.3 °C 9.2 °C 1015.8 hPa South 6.1 km/h 14.8 km/h 49% 0.0 mm 557 W/m2
14:42 20.6 °C 9.5 °C 1015.8 hPa Calm   14.8 km/h 49% 0.0 mm 97 W/m2
14:47 20.6 °C 9.2 °C 1015.8 hPa Calm   17.2 km/h 48% 0.0 mm 599 W/m2
14:52 21.0 °C 9.6 °C 1015.8 hPa South 2.6 km/h 17.2 km/h 48% 0.0 mm 591 W/m2
14:57 21.3 °C 9.6 °C 1016.1 hPa SE 3.5 km/h 9.7 km/h 47% 0.0 mm 574 W/m2
15:02 21.5 °C 10.1 °C 1016.1 hPa SE 3.5 km/h 11.1 km/h 48% 0.0 mm 294 W/m2
15:07 21.6 °C 10.1 °C 1016.1 hPa SSE 3.5 km/h 11.1 km/h 48% 0.0 mm 522 W/m2
15:12 21.9 °C 10.4 °C 1015.8 hPa Calm   11.1 km/h 48% 0.0 mm 540 W/m2
15:14 22.1 °C 10.6 °C 1015.8 hPa SE 6.1 km/h 11.1 km/h 48% 0.0 mm 534 W/m2
15:19 22.0 °C 10.5 °C 1015.8 hPa Calm   8.7 km/h 48% 0.0 mm 482 W/m2
15:24 21.9 °C 11.0 °C 1015.8 hPa SSE 2.6 km/h 8.7 km/h 50% 0.0 mm 511 W/m2
15:29 21.9 °C 10.4 °C 1015.8 hPa SSW 7.2 km/h 13.4 km/h 48% 0.0 mm 488 W/m2
15:34 21.5 °C 9.7 °C 1015.8 hPa Calm   13.4 km/h 47% 0.0 mm 487 W/m2
15:39 22.2 °C 9.7 °C 1015.8 hPa SSW 2.6 km/h 13.4 km/h 45% 0.0 mm 473 W/m2
15:44 21.8 °C 9.3 °C 1015.8 hPa SSW 3.5 km/h 17.2 km/h 45% 0.0 mm 374 W/m2
15:49 21.6 °C 8.8 °C 1015.8 hPa South 5.0 km/h 17.2 km/h 44% 0.0 mm 290 W/m2
15:54 21.6 °C 9.2 °C 1015.8 hPa SE 8.7 km/h 17.2 km/h 45% 0.0 mm 221 W/m2
15:59 21.9 °C 9.1 °C 1015.8 hPa SSE 6.1 km/h 18.3 km/h 44% 0.0 mm 404 W/m2
16:04 21.7 °C 8.9 °C 1015.8 hPa South 12.2 km/h 19.5 km/h 44% 0.0 mm 137 W/m2
16:09 21.5 °C 9.1 °C 1016.1 hPa South 5.0 km/h 19.5 km/h 45% 0.0 mm 410 W/m2
16:14 21.6 °C 10.1 °C 1015.8 hPa SSW 13.4 km/h 20.9 km/h 48% 0.0 mm 289 W/m2
16:19 21.1 °C 8.7 °C 1015.8 hPa SSW 14.8 km/h 23.3 km/h 45% 0.0 mm 349 W/m2
16:24 20.8 °C 10.3 °C 1015.8 hPa SW 15.8 km/h 23.3 km/h 51% 0.0 mm 379 W/m2
16:29 21.2 °C 10.4 °C 1016.1 hPa SW 8.7 km/h 23.3 km/h 50% 0.0 mm 371 W/m2
16:34 21.3 °C 9.8 °C 1016.1 hPa SSW 6.1 km/h 15.8 km/h 48% 0.0 mm 360 W/m2
16:39 21.7 °C 9.6 °C 1016.1 hPa South 6.1 km/h 14.8 km/h 46% 0.0 mm 356 W/m2
16:44 21.0 °C 8.6 °C 1015.8 hPa South 7.2 km/h 14.8 km/h 45% 0.0 mm 61 W/m2
16:49 20.0 °C 8.9 °C 1015.8 hPa South 5.0 km/h 14.8 km/h 49% 0.0 mm 73 W/m2
16:54 19.6 °C 9.5 °C 1016.1 hPa SSE 3.5 km/h 9.7 km/h 52% 0.0 mm 96 W/m2
16:59 19.4 °C 9.9 °C 1015.8 hPa SSW 2.6 km/h 9.7 km/h 54% 0.0 mm 93 W/m2
17:04 19.8 °C 9.9 °C 1015.8 hPa SW 3.5 km/h 9.7 km/h 53% 0.0 mm 146 W/m2
17:09 20.3 °C 9.6 °C 1015.8 hPa SW 3.5 km/h 14.8 km/h 50% 0.0 mm 289 W/m2
17:14 21.5 °C 9.7 °C 1015.8 hPa SW 1.1 km/h 14.8 km/h 47% 0.0 mm 339 W/m2
17:19 21.9 °C 9.8 °C 1015.8 hPa SW 3.5 km/h 11.1 km/h 46% 0.0 mm 330 W/m2
17:24 22.2 °C 9.4 °C 1015.8 hPa SW 1.1 km/h 11.1 km/h 44% 0.0 mm 279 W/m2
17:29 22.2 °C 9.4 °C 1016.1 hPa Calm   7.2 km/h 44% 0.0 mm 102 W/m2
17:34 21.7 °C 9.6 °C 1016.1 hPa SSE 3.5 km/h 8.7 km/h 46% 0.0 mm 70 W/m2
17:39 20.3 °C 8.9 °C 1016.1 hPa SSW 1.1 km/h 11.1 km/h 48% 0.0 mm 60 W/m2
17:44 19.5 °C 9.4 °C 1016.1 hPa South 3.5 km/h 11.1 km/h 52% 0.0 mm 63 W/m2
17:49 18.9 °C 9.7 °C 1016.1 hPa South 3.5 km/h 11.1 km/h 55% 0.0 mm 76 W/m2
17:54 18.7 °C 10.0 °C 1016.1 hPa South 1.1 km/h 8.7 km/h 57% 0.0 mm 55 W/m2
17:59 18.6 °C 10.7 °C 1016.1 hPa Calm   7.2 km/h 60% 0.0 mm 62 W/m2
18:04 18.3 °C 11.2 °C 1016.1 hPa SE 1.1 km/h 7.2 km/h 63% 0.0 mm 61 W/m2
18:09 18.1 °C 11.2 °C 1016.5 hPa Calm   5.0 km/h 64% 0.0 mm 51 W/m2
18:14 17.9 °C 10.8 °C 1016.5 hPa Calm   5.0 km/h 63% 0.0 mm 57 W/m2
18:19 17.9 °C 11.0 °C 1016.5 hPa Calm   6.1 km/h 64% 0.0 mm 52 W/m2
18:35 18.1 °C 10.4 °C 1016.5 hPa SE 1.1 km/h 6.1 km/h 61% 0.0 mm 34 W/m2
18:40 17.7 °C 10.3 °C 1016.8 hPa Calm   7.2 km/h 62% 0.0 mm 27 W/m2
18:45 17.4 °C 10.8 °C 1016.8 hPa Calm   7.2 km/h 65% 0.0 mm 17 W/m2
18:50 17.2 °C 10.8 °C 1016.8 hPa Calm   5.0 km/h 66% 0.0 mm 12 W/m2
18:55 17.0 °C 10.6 °C 1016.8 hPa ESE 2.6 km/h 5.0 km/h 66% 0.0 mm 12 W/m2
19:00 16.9 °C 10.9 °C 1016.8 hPa SE 1.1 km/h 8.7 km/h 68% 0.0 mm 10 W/m2
19:05 16.7 °C 11.4 °C 1017.2 hPa SSE 1.1 km/h 8.7 km/h 71% 0.0 mm 5 W/m2
19:10 16.7 °C 11.8 °C 1017.2 hPa SSE 2.6 km/h 11.1 km/h 73% 0.0 mm 4 W/m2
19:15 16.5 °C 12.1 °C 1016.8 hPa SSE 5.0 km/h 14.8 km/h 75% 0.0 mm 3 W/m2
19:20 16.3 °C 12.3 °C 1017.2 hPa SSE 6.1 km/h 14.8 km/h 77% 0.0 mm 1 W/m2
19:25 16.1 °C 12.3 °C 1017.2 hPa SSE 6.1 km/h 12.2 km/h 78% 0.0 mm 0 W/m2
19:30 15.9 °C 12.1 °C 1017.2 hPa South 2.6 km/h 12.2 km/h 78% 0.0 mm 0 W/m2
19:35 15.9 °C 11.9 °C 1017.5 hPa SSW 7.2 km/h 20.9 km/h 77% 0.0 mm 0 W/m2
19:40 15.8 °C 11.8 °C 1017.2 hPa South 2.6 km/h 20.9 km/h 77% 0.0 mm 0 W/m2
19:45 15.8 °C 12.0 °C 1017.5 hPa SSE 3.5 km/h 13.4 km/h 78% 0.0 mm 0 W/m2
19:50 15.6 °C 12.0 °C 1017.5 hPa Calm   9.7 km/h 79% 0.0 mm 0 W/m2
19:55 15.6 °C 12.2 °C 1017.5 hPa Calm   8.7 km/h 80% 0.0 mm 0 W/m2
20:00 15.5 °C 12.1 °C 1017.5 hPa SE 1.1 km/h 7.2 km/h 80% 0.0 mm 0 W/m2
20:05 15.5 °C 12.3 °C 1017.8 hPa Calm   3.5 km/h 81% 0.0 mm 0 W/m2
20:10 15.4 °C 12.2 °C 1017.8 hPa SE 1.1 km/h 6.1 km/h 81% 0.0 mm 0 W/m2
20:15 15.4 °C 12.2 °C 1017.8 hPa Calm   6.1 km/h 81% 0.0 mm 0 W/m2
20:20 15.3 °C 12.1 °C 1018.2 hPa Calm   3.5 km/h 81% 0.0 mm 0 W/m2
20:25 15.3 °C 12.3 °C 1018.2 hPa South 3.5 km/h 6.1 km/h 82% 0.0 mm 0 W/m2
20:30 15.3 °C 12.4 °C 1018.2 hPa Calm   6.1 km/h 83% 0.0 mm 0 W/m2
20:35 15.3 °C 12.4 °C 1018.2 hPa Calm   6.1 km/h 83% 0.0 mm 0 W/m2
20:41 15.2 °C 12.3 °C 1018.5 hPa South 3.5 km/h 8.7 km/h 83% 0.0 mm 0 W/m2
20:46 15.2 °C 12.5 °C 1018.5 hPa South 1.1 km/h 8.7 km/h 84% 0.0 mm 0 W/m2
20:51 15.2 °C 12.5 °C 1018.5 hPa South 7.2 km/h 12.2 km/h 84% 0.0 mm 0 W/m2
20:56 15.1 °C 12.4 °C 1018.8 hPa South 2.6 km/h 13.4 km/h 84% 0.0 mm 0 W/m2
21:01 15.1 °C 12.4 °C 1018.8 hPa South 7.2 km/h 15.8 km/h 84% 0.0 mm 0 W/m2
21:06 15.0 °C 12.3 °C 1018.8 hPa South 7.2 km/h 15.8 km/h 84% 0.0 mm 0 W/m2
21:11 15.0 °C 12.3 °C 1018.8 hPa South 8.7 km/h 12.2 km/h 84% 0.0 mm 0 W/m2
21:16 15.0 °C 12.3 °C 1018.8 hPa South 5.0 km/h 12.2 km/h 84% 0.0 mm 0 W/m2
21:21 14.9 °C 12.4 °C 1018.8 hPa South 8.7 km/h 12.2 km/h 85% 0.0 mm 0 W/m2
21:26 14.8 °C 12.3 °C 1018.8 hPa South 5.0 km/h 12.2 km/h 85% 0.0 mm 0 W/m2
21:31 14.8 °C 12.3 °C 1019.2 hPa South 5.0 km/h 12.2 km/h 85% 0.0 mm 0 W/m2
21:36 14.8 °C 12.3 °C 1019.2 hPa South 5.0 km/h 11.1 km/h 85% 0.0 mm 0 W/m2
21:41 14.7 °C 12.2 °C 1019.2 hPa SSW 5.0 km/h 11.1 km/h 85% 0.0 mm 0 W/m2
21:46 14.7 °C 12.2 °C 1019.2 hPa SSW 2.6 km/h 11.1 km/h 85% 0.0 mm 0 W/m2
21:51 14.6 °C 12.1 °C 1019.2 hPa SW 2.6 km/h 7.2 km/h 85% 0.0 mm 0 W/m2
21:56 14.5 °C 12.2 °C 1019.2 hPa WSW 3.5 km/h 7.2 km/h 86% 0.0 mm 0 W/m2
22:01 14.4 °C 12.1 °C 1019.5 hPa WSW 2.6 km/h 7.2 km/h 86% 0.0 mm 0 W/m2
22:07 14.3 °C 12.2 °C 1019.2 hPa WSW 2.6 km/h 6.1 km/h 87% 0.0 mm 0 W/m2
22:12 14.2 °C 12.1 °C 1019.2 hPa WSW 2.6 km/h 6.1 km/h 87% 0.0 mm 0 W/m2
22:17 14.2 °C 12.1 °C 1019.2 hPa WSW 3.5 km/h 6.1 km/h 87% 0.0 mm 0 W/m2
22:22 14.2 °C 12.2 °C 1019.2 hPa WSW 2.6 km/h 7.2 km/h 88% 0.0 mm 0 W/m2
22:27 14.2 °C 12.2 °C 1019.2 hPa WSW 3.5 km/h 7.2 km/h 88% 0.0 mm 0 W/m2
22:32 14.1 °C 12.2 °C 1018.8 hPa WSW 2.6 km/h 6.1 km/h 88% 0.0 mm 0 W/m2
22:37 14.1 °C 12.2 °C 1019.2 hPa WSW 3.5 km/h 6.1 km/h 88% 0.0 mm 0 W/m2
22:42 14.1 °C 12.2 °C 1019.2 hPa WSW 3.5 km/h 7.2 km/h 88% 0.0 mm 0 W/m2
22:47 14.1 °C 12.2 °C 1019.2 hPa Calm   7.2 km/h 88% 0.0 mm 0 W/m2
22:52 14.1 °C 12.2 °C 1019.2 hPa WSW 2.6 km/h 7.2 km/h 88% 0.0 mm 0 W/m2
22:57 14.1 °C 12.2 °C 1019.2 hPa WSW 1.1 km/h 6.1 km/h 88% 0.0 mm 0 W/m2
23:02 14.1 °C 12.3 °C 1019.2 hPa Calm   7.2 km/h 89% 0.0 mm 0 W/m2
23:07 14.1 °C 12.3 °C 1019.2 hPa WSW 1.1 km/h 7.2 km/h 89% 0.0 mm 0 W/m2
23:12 14.1 °C 12.3 °C 1019.2 hPa Calm   6.1 km/h 89% 0.0 mm 0 W/m2
23:17 14.1 °C 12.3 °C 1019.2 hPa Calm   6.1 km/h 89% 0.0 mm 0 W/m2
23:22 14.1 °C 12.3 °C 1019.2 hPa Calm   6.1 km/h 89% 0.0 mm 0 W/m2
23:27 14.0 °C 12.2 °C 1018.8 hPa WSW 2.6 km/h 6.1 km/h 89% 0.0 mm 0 W/m2
23:32 14.0 °C 12.2 °C 1019.2 hPa West 2.6 km/h 6.1 km/h 89% 0.0 mm 0 W/m2
23:37 14.1 °C 12.3 °C 1019.2 hPa WSW 1.1 km/h 7.2 km/h 89% 0.0 mm 0 W/m2
23:42 14.0 °C 12.2 °C 1018.8 hPa Calm   7.2 km/h 89% 0.0 mm 0 W/m2
23:47 14.0 °C 12.2 °C 1018.8 hPa West 2.6 km/h 7.2 km/h 89% 0.0 mm 0 W/m2
23:52 14.0 °C 12.2 °C 1018.8 hPa Calm   7.2 km/h 89% 0.0 mm 0 W/m2
23:57 13.9 °C 12.3 °C 1018.8 hPa WSW 2.6 km/h 7.2 km/h 90% 0.0 mm 0 W/m2
Northern Hawkes Bay. New Zealand Historic Data
Compliments of Weather Underground - 2.25 mb